Search for airport 
image banner adimage banner adimage banner ad
image banner ad

KLVK - Livermore Muni

Located in Livermore, United States

ICAO - LVK, IATA - LVK

Data provided by Airmate  

General information

Coordinates: N37°41'36" W121°49'13"
Elevation is 400 feet MSL.
Magnetic variation is 16° East
View others Airports in California

Operational data

Special qualification required
Current time UTC:
Current local time:
Weather
METAR: KLVK 211253Z AUTO 32006KT 10SM SCT012 14/12 A2989 RMK AO2 SLP117 T01390117
TAF: KLVK 211139Z 2112/2212 30007KT P6SM SKC FM211500 29012KT P6SM SKC FM220200 30005KT P6SM SKC
View NOTAMs / SUP AIP / TFR affecting this airport [VIEW]
Communications frequencies: [VIEW]

Runways:

RWY identifierQFULength (ft)Width (ft)SurfaceLDA (ft)
07R90°269975ASPH
25L270°269975ASPH
07L90°5253100ASPH
25R270°5253100ASPH

Airport contact information

Address: Livermore United States

Other aviation service providers

Flight schools

Attitude Aviation, Inc.

Attitude Aviation, Inc.
attav@aol.com+1(925)456-2276

Red Sky Aviation, Llc

Red Sky Aviation, Llc

Atp Flight School (800-All-Atps)

Atp Flight School (800-All-Atps)
info@allatps.com+1(800)255-2877

Jato Aviation

Jato Aviation
ops@jatoaviation.com+1(650)654-5286

Satellite view of KLVK